Patrai, Greece
Current Conditions -  °F | °C
As of 1:20 PM on Friday 24 Oct 2014 (Local Time) from LGRX Reporting Station
Light Rain Light Rain  
Wind Chill: 55°   Ceiling: 8000
Heat Index: 55°   Visibility: 4mi
Dew Point: 55°   Wind: 3mph
Humidity: 100%   Direction: NA
Pressure: 29.65"   Gusts: NA
Location:  38.24°N, 21.73°E
Report Text: LGRX 241020Z VRB03KT 6000 -RA SCT015 FEW016TCU BKN080 OVC180 13/13 Q1004
Loading
Personal Weather Stations






























Interactive Weather Map
Tropical Storm Tracking
New forecast layout! Learn more

10-Day Weather Forecast

Advertisements
Track Severe Weather on mobile